sensor_id;sensor_type;location;lat;lon;timestamp;temperature;humidity
32334;DHT22;18810;53.040;8.850;2022-07-06T00:01:42;14.50;99.90
32334;DHT22;18810;53.040;8.850;2022-07-06T00:13:52;14.50;99.90
32334;DHT22;18810;53.040;8.850;2022-07-06T00:16:18;14.50;99.90
32334;DHT22;18810;53.040;8.850;2022-07-06T00:18:44;14.50;99.90
32334;DHT22;18810;53.040;8.850;2022-07-06T00:21:10;14.40;99.90
32334;DHT22;18810;53.040;8.850;2022-07-06T00:23:36;14.50;99.90
32334;DHT22;18810;53.040;8.850;2022-07-06T00:26:02;14.50;99.90
32334;DHT22;18810;53.040;8.850;2022-07-06T00:28:28;14.60;99.90
32334;DHT22;18810;53.040;8.850;2022-07-06T00:30:54;14.60;99.90
32334;DHT22;18810;53.040;8.850;2022-07-06T00:33:20;14.50;99.90
32334;DHT22;18810;53.040;8.850;2022-07-06T00:35:46;14.50;99.90
32334;DHT22;18810;53.040;8.850;2022-07-06T00:38:12;14.50;99.90
32334;DHT22;18810;53.040;8.850;2022-07-06T00:40:38;14.40;99.90
32334;DHT22;18810;53.040;8.850;2022-07-06T00:43:04;14.40;99.90
32334;DHT22;18810;53.040;8.850;2022-07-06T00:45:29;14.40;99.90
32334;DHT22;18810;53.040;8.850;2022-07-06T00:47:55;14.50;99.90
32334;DHT22;18810;53.040;8.850;2022-07-06T00:50:21;14.50;99.90
32334;DHT22;18810;53.040;8.850;2022-07-06T00:52:52;14.50;99.90
32334;DHT22;18810;53.040;8.850;2022-07-06T00:55:27;14.60;99.90
32334;DHT22;18810;53.040;8.850;2022-07-06T00:57:54;14.50;99.90
32334;DHT22;18810;53.040;8.850;2022-07-06T01:00:22;14.50;99.90
32334;DHT22;18810;53.040;8.850;2022-07-06T01:02:48;14.50;99.90
32334;DHT22;18810;53.040;8.850;2022-07-06T01:05:15;14.60;99.90
32334;DHT22;18810;53.040;8.850;2022-07-06T01:07:43;14.70;99.90
32334;DHT22;18810;53.040;8.850;2022-07-06T01:10:12;14.60;99.90
32334;DHT22;18810;53.040;8.850;2022-07-06T01:12:39;14.60;99.90
32334;DHT22;18810;53.040;8.850;2022-07-06T01:15:10;14.60;99.90
32334;DHT22;18810;53.040;8.850;2022-07-06T01:17:38;14.80;99.90
32334;DHT22;18810;53.040;8.850;2022-07-06T01:20:25;14.50;99.90
32334;DHT22;18810;53.040;8.850;2022-07-06T01:22:53;14.60;99.90
32334;DHT22;18810;53.040;8.850;2022-07-06T01:25:20;14.60;99.90
32334;DHT22;18810;53.040;8.850;2022-07-06T01:27:46;14.70;99.90
32334;DHT22;18810;53.040;8.850;2022-07-06T01:30:15;14.60;99.90
32334;DHT22;18810;53.040;8.850;2022-07-06T01:32:42;14.60;99.90
32334;DHT22;18810;53.040;8.850;2022-07-06T01:35:10;14.60;99.90
32334;DHT22;18810;53.040;8.850;2022-07-06T01:37:36;14.50;99.90
32334;DHT22;18810;53.040;8.850;2022-07-06T01:40:04;14.60;99.90
32334;DHT22;18810;53.040;8.850;2022-07-06T01:42:30;14.60;99.90
32334;DHT22;18810;53.040;8.850;2022-07-06T01:44:56;14.60;99.90
32334;DHT22;18810;53.040;8.850;2022-07-06T01:47:22;14.60;99.90
32334;DHT22;18810;53.040;8.850;2022-07-06T01:49:48;14.60;99.90
32334;DHT22;18810;53.040;8.850;2022-07-06T01:52:14;14.70;99.90
32334;DHT22;18810;53.040;8.850;2022-07-06T01:54:40;14.70;99.90
32334;DHT22;18810;53.040;8.850;2022-07-06T01:57:06;14.60;99.90
32334;DHT22;18810;53.040;8.850;2022-07-06T01:59:31;14.60;99.90
32334;DHT22;18810;53.040;8.850;2022-07-06T02:01:57;14.60;99.90
32334;DHT22;18810;53.040;8.850;2022-07-06T02:04:22;14.60;99.90
32334;DHT22;18810;53.040;8.850;2022-07-06T02:06:48;14.60;99.90
32334;DHT22;18810;53.040;8.850;2022-07-06T02:09:14;14.60;99.90
32334;DHT22;18810;53.040;8.850;2022-07-06T02:11:41;14.70;99.90
32334;DHT22;18810;53.040;8.850;2022-07-06T02:14:06;14.60;99.90
32334;DHT22;18810;53.040;8.850;2022-07-06T02:16:34;14.60;99.90
32334;DHT22;18810;53.040;8.850;2022-07-06T02:18:59;14.60;99.90
32334;DHT22;18810;53.040;8.850;2022-07-06T02:21:25;14.60;99.90
32334;DHT22;18810;53.040;8.850;2022-07-06T02:23:50;14.60;99.90
32334;DHT22;18810;53.040;8.850;2022-07-06T02:26:16;14.60;99.90
32334;DHT22;18810;53.040;8.850;2022-07-06T02:28:42;14.60;99.90
32334;DHT22;18810;53.040;8.850;2022-07-06T02:31:07;14.50;99.90
32334;DHT22;18810;53.040;8.850;2022-07-06T02:33:33;14.60;99.90
32334;DHT22;18810;53.040;8.850;2022-07-06T02:35:59;14.60;99.90
32334;DHT22;18810;53.040;8.850;2022-07-06T02:38:25;14.60;99.90
32334;DHT22;18810;53.040;8.850;2022-07-06T02:40:51;14.60;99.90
32334;DHT22;18810;53.040;8.850;2022-07-06T02:43:17;14.60;99.90
32334;DHT22;18810;53.040;8.850;2022-07-06T02:45:43;14.50;99.90
32334;DHT22;18810;53.040;8.850;2022-07-06T02:48:08;14.60;99.90
32334;DHT22;18810;53.040;8.850;2022-07-06T02:50:34;14.50;99.90
32334;DHT22;18810;53.040;8.850;2022-07-06T02:53:00;14.50;99.90
32334;DHT22;18810;53.040;8.850;2022-07-06T02:55:27;14.50;99.90
32334;DHT22;18810;53.040;8.850;2022-07-06T02:57:53;14.40;99.90
32334;DHT22;18810;53.040;8.850;2022-07-06T03:00:18;14.30;99.90
32334;DHT22;18810;53.040;8.850;2022-07-06T03:02:44;14.40;99.90
32334;DHT22;18810;53.040;8.850;2022-07-06T03:05:10;14.40;99.90
32334;DHT22;18810;53.040;8.850;2022-07-06T03:07:36;14.40;99.90
32334;DHT22;18810;53.040;8.850;2022-07-06T03:10:02;14.40;99.90
32334;DHT22;18810;53.040;8.850;2022-07-06T03:12:28;14.40;99.90
32334;DHT22;18810;53.040;8.850;2022-07-06T03:14:53;14.40;99.90
32334;DHT22;18810;53.040;8.850;2022-07-06T03:17:19;14.40;99.90
32334;DHT22;18810;53.040;8.850;2022-07-06T03:19:44;14.40;99.90
32334;DHT22;18810;53.040;8.850;2022-07-06T03:22:10;14.40;99.90
32334;DHT22;18810;53.040;8.850;2022-07-06T03:24:36;14.40;99.90
32334;DHT22;18810;53.040;8.850;2022-07-06T03:27:01;14.40;99.90
32334;DHT22;18810;53.040;8.850;2022-07-06T03:29:27;14.40;99.90
32334;DHT22;18810;53.040;8.850;2022-07-06T03:31:53;14.40;99.90
32334;DHT22;18810;53.040;8.850;2022-07-06T03:34:18;14.40;99.90
32334;DHT22;18810;53.040;8.850;2022-07-06T03:36:44;14.50;99.90
32334;DHT22;18810;53.040;8.850;2022-07-06T03:39:10;14.40;99.90
32334;DHT22;18810;53.040;8.850;2022-07-06T03:41:35;14.40;99.90
32334;DHT22;18810;53.040;8.850;2022-07-06T03:44:01;14.40;99.90
32334;DHT22;18810;53.040;8.850;2022-07-06T03:46:28;14.40;99.90
32334;DHT22;18810;53.040;8.850;2022-07-06T03:48:54;14.50;99.90
32334;DHT22;18810;53.040;8.850;2022-07-06T03:51:19;14.60;99.90
32334;DHT22;18810;53.040;8.850;2022-07-06T03:53:45;14.60;99.90
32334;DHT22;18810;53.040;8.850;2022-07-06T03:56:11;14.60;99.90
32334;DHT22;18810;53.040;8.850;2022-07-06T03:58:56;14.70;99.90
32334;DHT22;18810;53.040;8.850;2022-07-06T04:01:22;14.60;99.90
32334;DHT22;18810;53.040;8.850;2022-07-06T04:03:48;14.60;99.90
32334;DHT22;18810;53.040;8.850;2022-07-06T04:06:14;14.60;99.90
32334;DHT22;18810;53.040;8.850;2022-07-06T04:08:39;14.60;99.90
32334;DHT22;18810;53.040;8.850;2022-07-06T04:11:05;14.60;99.90
32334;DHT22;18810;53.040;8.850;2022-07-06T04:13:31;14.60;99.90
32334;DHT22;18810;53.040;8.850;2022-07-06T04:15:57;14.60;99.90
32334;DHT22;18810;53.040;8.850;2022-07-06T04:18:23;14.60;99.90
32334;DHT22;18810;53.040;8.850;2022-07-06T04:20:48;14.60;99.90
32334;DHT22;18810;53.040;8.850;2022-07-06T04:23:14;14.70;99.90
32334;DHT22;18810;53.040;8.850;2022-07-06T04:25:40;14.70;99.90
32334;DHT22;18810;53.040;8.850;2022-07-06T04:28:05;14.70;99.90
32334;DHT22;18810;53.040;8.850;2022-07-06T04:30:31;14.60;99.90
32334;DHT22;18810;53.040;8.850;2022-07-06T04:32:57;14.70;99.90
32334;DHT22;18810;53.040;8.850;2022-07-06T04:35:22;14.60;99.90
32334;DHT22;18810;53.040;8.850;2022-07-06T04:37:48;14.60;99.90
32334;DHT22;18810;53.040;8.850;2022-07-06T04:40:16;14.60;99.90
32334;DHT22;18810;53.040;8.850;2022-07-06T04:42:41;14.70;99.90
32334;DHT22;18810;53.040;8.850;2022-07-06T04:45:08;14.80;99.90
32334;DHT22;18810;53.040;8.850;2022-07-06T04:47:34;14.90;99.90
32334;DHT22;18810;53.040;8.850;2022-07-06T04:50:01;14.80;99.90
32334;DHT22;18810;53.040;8.850;2022-07-06T04:52:26;14.90;99.90
32334;DHT22;18810;53.040;8.850;2022-07-06T04:54:54;14.90;99.90
32334;DHT22;18810;53.040;8.850;2022-07-06T04:57:20;15.00;99.90
32334;DHT22;18810;53.040;8.850;2022-07-06T04:59:45;15.10;99.90
32334;DHT22;18810;53.040;8.850;2022-07-06T05:02:11;15.10;99.90
32334;DHT22;18810;53.040;8.850;2022-07-06T05:04:37;15.20;99.90
32334;DHT22;18810;53.040;8.850;2022-07-06T05:07:03;15.30;99.90
32334;DHT22;18810;53.040;8.850;2022-07-06T05:09:29;15.30;99.90
32334;DHT22;18810;53.040;8.850;2022-07-06T05:11:54;15.30;99.90
32334;DHT22;18810;53.040;8.850;2022-07-06T05:14:20;15.30;99.90
32334;DHT22;18810;53.040;8.850;2022-07-06T05:16:46;15.30;99.90
32334;DHT22;18810;53.040;8.850;2022-07-06T05:19:12;15.50;99.90
32334;DHT22;18810;53.040;8.850;2022-07-06T05:21:37;15.50;99.90
32334;DHT22;18810;53.040;8.850;2022-07-06T05:24:03;15.60;99.90
32334;DHT22;18810;53.040;8.850;2022-07-06T05:26:29;15.60;99.90
32334;DHT22;18810;53.040;8.850;2022-07-06T05:28:55;15.70;99.90
32334;DHT22;18810;53.040;8.850;2022-07-06T05:31:21;15.80;99.90
32334;DHT22;18810;53.040;8.850;2022-07-06T05:33:46;16.00;99.90
32334;DHT22;18810;53.040;8.850;2022-07-06T05:36:12;16.00;99.90
32334;DHT22;18810;53.040;8.850;2022-07-06T05:38:38;16.10;99.90
32334;DHT22;18810;53.040;8.850;2022-07-06T05:41:03;16.20;99.90
32334;DHT22;18810;53.040;8.850;2022-07-06T05:43:29;16.30;99.90
32334;DHT22;18810;53.040;8.850;2022-07-06T05:45:55;16.30;99.90
32334;DHT22;18810;53.040;8.850;2022-07-06T05:48:21;16.40;99.90
32334;DHT22;18810;53.040;8.850;2022-07-06T05:51:05;16.40;99.90
32334;DHT22;18810;53.040;8.850;2022-07-06T05:53:30;16.50;99.90
32334;DHT22;18810;53.040;8.850;2022-07-06T05:55:56;16.70;99.90
32334;DHT22;18810;53.040;8.850;2022-07-06T05:58:22;16.70;99.90
32334;DHT22;18810;53.040;8.850;2022-07-06T06:00:49;16.70;99.90
32334;DHT22;18810;53.040;8.850;2022-07-06T06:03:15;16.80;99.90
32334;DHT22;18810;53.040;8.850;2022-07-06T06:05:41;16.80;99.90
32334;DHT22;18810;53.040;8.850;2022-07-06T06:08:06;16.70;99.90
32334;DHT22;18810;53.040;8.850;2022-07-06T06:10:32;16.70;99.90
32334;DHT22;18810;53.040;8.850;2022-07-06T06:12:58;16.70;99.90
32334;DHT22;18810;53.040;8.850;2022-07-06T06:15:24;16.70;99.90
32334;DHT22;18810;53.040;8.850;2022-07-06T06:17:49;16.70;99.90
32334;DHT22;18810;53.040;8.850;2022-07-06T06:20:15;16.70;99.90
32334;DHT22;18810;53.040;8.850;2022-07-06T06:22:51;16.70;99.90
32334;DHT22;18810;53.040;8.850;2022-07-06T06:25:19;16.70;99.90
32334;DHT22;18810;53.040;8.850;2022-07-06T06:27:45;16.70;99.90
32334;DHT22;18810;53.040;8.850;2022-07-06T06:30:12;16.90;99.90
32334;DHT22;18810;53.040;8.850;2022-07-06T06:32:39;16.90;99.90
32334;DHT22;18810;53.040;8.850;2022-07-06T06:35:05;16.90;99.90
32334;DHT22;18810;53.040;8.850;2022-07-06T06:37:31;17.10;99.90
32334;DHT22;18810;53.040;8.850;2022-07-06T06:39:57;17.10;99.90
32334;DHT22;18810;53.040;8.850;2022-07-06T06:42:22;17.20;99.90
32334;DHT22;18810;53.040;8.850;2022-07-06T06:44:49;17.10;99.90
32334;DHT22;18810;53.040;8.850;2022-07-06T06:47:14;17.20;99.90
32334;DHT22;18810;53.040;8.850;2022-07-06T06:49:40;17.40;99.90
32334;DHT22;18810;53.040;8.850;2022-07-06T06:52:06;17.70;99.90
32334;DHT22;18810;53.040;8.850;2022-07-06T06:54:31;17.80;99.90
32334;DHT22;18810;53.040;8.850;2022-07-06T06:56:57;17.90;99.90
32334;DHT22;18810;53.040;8.850;2022-07-06T06:59:23;17.80;99.90
32334;DHT22;18810;53.040;8.850;2022-07-06T07:01:48;17.50;99.90
32334;DHT22;18810;53.040;8.850;2022-07-06T07:04:14;18.10;99.90
32334;DHT22;18810;53.040;8.850;2022-07-06T07:06:40;18.50;99.90
32334;DHT22;18810;53.040;8.850;2022-07-06T07:09:06;18.80;99.90
32334;DHT22;18810;53.040;8.850;2022-07-06T07:11:32;18.90;99.90
32334;DHT22;18810;53.040;8.850;2022-07-06T07:13:57;18.80;99.90
32334;DHT22;18810;53.040;8.850;2022-07-06T07:16:25;18.90;99.90
32334;DHT22;18810;53.040;8.850;2022-07-06T07:18:51;19.20;99.90
32334;DHT22;18810;53.040;8.850;2022-07-06T07:21:16;19.30;99.90
32334;DHT22;18810;53.040;8.850;2022-07-06T07:23:42;19.30;99.90
32334;DHT22;18810;53.040;8.850;2022-07-06T07:26:08;19.40;99.90
32334;DHT22;18810;53.040;8.850;2022-07-06T07:28:34;19.40;99.90
32334;DHT22;18810;53.040;8.850;2022-07-06T07:31:02;19.60;99.90
32334;DHT22;18810;53.040;8.850;2022-07-06T07:33:29;19.90;99.90
32334;DHT22;18810;53.040;8.850;2022-07-06T07:35:54;20.20;99.90
32334;DHT22;18810;53.040;8.850;2022-07-06T07:38:20;20.00;99.80
32334;DHT22;18810;53.040;8.850;2022-07-06T07:40:46;19.80;99.60
32334;DHT22;18810;53.040;8.850;2022-07-06T07:43:11;19.70;99.50
32334;DHT22;18810;53.040;8.850;2022-07-06T07:45:37;19.70;99.90
32334;DHT22;18810;53.040;8.850;2022-07-06T07:48:04;19.40;99.30
32334;DHT22;18810;53.040;8.850;2022-07-06T07:50:29;19.20;99.80
32334;DHT22;18810;53.040;8.850;2022-07-06T07:52:55;19.00;99.90
32334;DHT22;18810;53.040;8.850;2022-07-06T07:55:21;18.80;99.90
32334;DHT22;18810;53.040;8.850;2022-07-06T07:57:46;18.80;99.90
32334;DHT22;18810;53.040;8.850;2022-07-06T08:00:13;18.80;99.90
32334;DHT22;18810;53.040;8.850;2022-07-06T08:02:39;18.80;99.90
32334;DHT22;18810;53.040;8.850;2022-07-06T08:05:05;18.80;99.90
32334;DHT22;18810;53.040;8.850;2022-07-06T08:07:31;18.80;99.90
32334;DHT22;18810;53.040;8.850;2022-07-06T08:09:56;18.80;99.90
32334;DHT22;18810;53.040;8.850;2022-07-06T08:12:22;18.70;99.90
32334;DHT22;18810;53.040;8.850;2022-07-06T08:14:48;18.70;99.90
32334;DHT22;18810;53.040;8.850;2022-07-06T08:17:13;18.70;99.90
32334;DHT22;18810;53.040;8.850;2022-07-06T08:19:39;18.60;99.90
32334;DHT22;18810;53.040;8.850;2022-07-06T08:22:05;18.80;99.90
32334;DHT22;18810;53.040;8.850;2022-07-06T08:24:34;19.00;99.90
32334;DHT22;18810;53.040;8.850;2022-07-06T08:27:00;19.30;99.90
32334;DHT22;18810;53.040;8.850;2022-07-06T08:29:26;19.60;99.20
32334;DHT22;18810;53.040;8.850;2022-07-06T08:31:51;19.70;99.10
32334;DHT22;18810;53.040;8.850;2022-07-06T08:34:17;19.90;98.60
32334;DHT22;18810;53.040;8.850;2022-07-06T08:36:43;20.20;98.10
32334;DHT22;18810;53.040;8.850;2022-07-06T08:39:09;20.50;97.60
32334;DHT22;18810;53.040;8.850;2022-07-06T08:41:36;20.80;95.40
32334;DHT22;18810;53.040;8.850;2022-07-06T08:44:04;20.60;95.50
32334;DHT22;18810;53.040;8.850;2022-07-06T08:46:30;20.70;96.20
32334;DHT22;18810;53.040;8.850;2022-07-06T08:48:57;20.80;95.90
32334;DHT22;18810;53.040;8.850;2022-07-06T08:51:24;20.90;95.60
32334;DHT22;18810;53.040;8.850;2022-07-06T08:53:50;21.30;94.80
32334;DHT22;18810;53.040;8.850;2022-07-06T08:56:18;21.40;95.10
32334;DHT22;18810;53.040;8.850;2022-07-06T08:58:44;21.70;94.80
32334;DHT22;18810;53.040;8.850;2022-07-06T09:01:10;21.90;93.80
32334;DHT22;18810;53.040;8.850;2022-07-06T09:03:36;22.00;94.00
32334;DHT22;18810;53.040;8.850;2022-07-06T09:06:04;22.20;92.90
32334;DHT22;18810;53.040;8.850;2022-07-06T09:08:32;22.10;91.90
32334;DHT22;18810;53.040;8.850;2022-07-06T09:10:58;21.80;92.60
32334;DHT22;18810;53.040;8.850;2022-07-06T09:13:24;22.00;93.00
32334;DHT22;18810;53.040;8.850;2022-07-06T09:15:50;21.90;92.00
32334;DHT22;18810;53.040;8.850;2022-07-06T09:18:15;21.70;91.70
32334;DHT22;18810;53.040;8.850;2022-07-06T09:20:42;21.60;92.00
32334;DHT22;18810;53.040;8.850;2022-07-06T09:23:08;21.50;92.00
32334;DHT22;18810;53.040;8.850;2022-07-06T09:25:35;21.60;91.80
32334;DHT22;18810;53.040;8.850;2022-07-06T09:28:01;21.50;92.80
32334;DHT22;18810;53.040;8.850;2022-07-06T09:30:28;21.50;92.40
32334;DHT22;18810;53.040;8.850;2022-07-06T09:32:58;21.50;92.60
32334;DHT22;18810;53.040;8.850;2022-07-06T09:38:14;20.60;95.20
32334;DHT22;18810;53.040;8.850;2022-07-06T09:40:42;19.90;96.30
32334;DHT22;18810;53.040;8.850;2022-07-06T09:43:15;19.60;97.30
32334;DHT22;18810;53.040;8.850;2022-07-06T09:45:44;19.50;97.20
32334;DHT22;18810;53.040;8.850;2022-07-06T09:48:35;19.40;96.90
32334;DHT22;18810;53.040;8.850;2022-07-06T09:51:01;19.30;96.40
32334;DHT22;18810;53.040;8.850;2022-07-06T09:53:34;19.30;96.60
32334;DHT22;18810;53.040;8.850;2022-07-06T09:56:00;19.60;95.70
32334;DHT22;18810;53.040;8.850;2022-07-06T09:58:27;19.80;95.30
32334;DHT22;18810;53.040;8.850;2022-07-06T10:00:53;20.20;94.80
32334;DHT22;18810;53.040;8.850;2022-07-06T10:03:19;20.80;93.70
32334;DHT22;18810;53.040;8.850;2022-07-06T10:05:47;21.20;92.30
32334;DHT22;18810;53.040;8.850;2022-07-06T10:08:14;21.60;91.80
32334;DHT22;18810;53.040;8.850;2022-07-06T10:10:41;21.80;91.20
32334;DHT22;18810;53.040;8.850;2022-07-06T10:13:07;22.10;90.70
32334;DHT22;18810;53.040;8.850;2022-07-06T10:15:35;22.20;90.50
32334;DHT22;18810;53.040;8.850;2022-07-06T10:18:03;22.20;89.80
32334;DHT22;18810;53.040;8.850;2022-07-06T10:20:32;22.60;89.80
32334;DHT22;18810;53.040;8.850;2022-07-06T10:23:03;22.60;87.90
32334;DHT22;18810;53.040;8.850;2022-07-06T10:25:29;22.90;87.90
32334;DHT22;18810;53.040;8.850;2022-07-06T10:27:56;23.20;85.60
32334;DHT22;18810;53.040;8.850;2022-07-06T10:30:23;23.20;86.90
32334;DHT22;18810;53.040;8.850;2022-07-06T10:32:50;23.40;84.20
32334;DHT22;18810;53.040;8.850;2022-07-06T10:35:18;23.50;84.00
32334;DHT22;18810;53.040;8.850;2022-07-06T10:37:45;25.10;83.50
32334;DHT22;18810;53.040;8.850;2022-07-06T10:40:13;25.20;81.20
32334;DHT22;18810;53.040;8.850;2022-07-06T10:42:59;25.30;80.60
32334;DHT22;18810;53.040;8.850;2022-07-06T10:48:33;24.60;81.80
32334;DHT22;18810;53.040;8.850;2022-07-06T10:51:02;24.20;81.90
32334;DHT22;18810;53.040;8.850;2022-07-06T10:53:40;23.70;82.90
32334;DHT22;18810;53.040;8.850;2022-07-06T10:56:10;23.30;85.50
32334;DHT22;18810;53.040;8.850;2022-07-06T11:01:12;22.70;87.90
32334;DHT22;18810;53.040;8.850;2022-07-06T11:03:39;22.30;88.30
32334;DHT22;18810;53.040;8.850;2022-07-06T11:06:19;22.60;87.90
32334;DHT22;18810;53.040;8.850;2022-07-06T11:08:55;22.90;88.00
32334;DHT22;18810;53.040;8.850;2022-07-06T11:16:23;23.90;84.10
32334;DHT22;18810;53.040;8.850;2022-07-06T11:19:07;24.00;84.10
32334;DHT22;18810;53.040;8.850;2022-07-06T11:22:07;24.10;82.60
32334;DHT22;18810;53.040;8.850;2022-07-06T11:24:35;23.60;84.20
32334;DHT22;18810;53.040;8.850;2022-07-06T11:27:01;23.10;86.40
32334;DHT22;18810;53.040;8.850;2022-07-06T11:29:28;22.70;88.70
32334;DHT22;18810;53.040;8.850;2022-07-06T11:31:58;22.30;89.30
32334;DHT22;18810;53.040;8.850;2022-07-06T11:34:31;22.10;90.10
32334;DHT22;18810;53.040;8.850;2022-07-06T11:39:33;22.40;88.40
32334;DHT22;18810;53.040;8.850;2022-07-06T11:42:00;22.80;88.30
32334;DHT22;18810;53.040;8.850;2022-07-06T11:44:26;23.20;86.40
32334;DHT22;18810;53.040;8.850;2022-07-06T11:46:53;23.10;85.10
32334;DHT22;18810;53.040;8.850;2022-07-06T11:49:22;23.20;83.60
32334;DHT22;18810;53.040;8.850;2022-07-06T11:51:47;24.10;82.90
32334;DHT22;18810;53.040;8.850;2022-07-06T11:54:20;24.40;82.10
32334;DHT22;18810;53.040;8.850;2022-07-06T11:59:27;26.20;76.60
32334;DHT22;18810;53.040;8.850;2022-07-06T12:04:29;26.30;76.00
32334;DHT22;18810;53.040;8.850;2022-07-06T12:06:55;26.30;75.80
32334;DHT22;18810;53.040;8.850;2022-07-06T12:09:24;26.50;72.80
32334;DHT22;18810;53.040;8.850;2022-07-06T12:11:53;27.00;72.00
32334;DHT22;18810;53.040;8.850;2022-07-06T12:14:20;26.70;71.50
32334;DHT22;18810;53.040;8.850;2022-07-06T12:16:48;27.10;69.70
32334;DHT22;18810;53.040;8.850;2022-07-06T12:21:48;27.60;69.90
32334;DHT22;18810;53.040;8.850;2022-07-06T12:24:23;27.70;69.80
32334;DHT22;18810;53.040;8.850;2022-07-06T12:27:18;26.50;71.40
32334;DHT22;18810;53.040;8.850;2022-07-06T12:29:44;25.90;72.50
32334;DHT22;18810;53.040;8.850;2022-07-06T12:32:15;25.50;75.80
32334;DHT22;18810;53.040;8.850;2022-07-06T12:37:09;26.20;72.40
32334;DHT22;18810;53.040;8.850;2022-07-06T12:39:42;26.30;72.90
32334;DHT22;18810;53.040;8.850;2022-07-06T12:44:45;25.20;74.30
32334;DHT22;18810;53.040;8.850;2022-07-06T12:47:12;24.80;76.50
32334;DHT22;18810;53.040;8.850;2022-07-06T12:49:38;24.80;75.80
32334;DHT22;18810;53.040;8.850;2022-07-06T12:52:15;25.20;75.40
32334;DHT22;18810;53.040;8.850;2022-07-06T12:54:43;25.30;76.00
32334;DHT22;18810;53.040;8.850;2022-07-06T12:57:14;25.70;74.20
32334;DHT22;18810;53.040;8.850;2022-07-06T12:59:54;25.80;75.20
32334;DHT22;18810;53.040;8.850;2022-07-06T13:05:06;28.10;68.80
32334;DHT22;18810;53.040;8.850;2022-07-06T13:07:35;28.20;68.60
32334;DHT22;18810;53.040;8.850;2022-07-06T13:10:05;28.60;67.90
32334;DHT22;18810;53.040;8.850;2022-07-06T13:12:31;28.00;67.20
32334;DHT22;18810;53.040;8.850;2022-07-06T13:14:57;26.90;69.50
32334;DHT22;18810;53.040;8.850;2022-07-06T13:27:08;29.20;64.90
32334;DHT22;18810;53.040;8.850;2022-07-06T13:29:34;28.80;66.00
32334;DHT22;18810;53.040;8.850;2022-07-06T13:44:10;24.30;76.80
32334;DHT22;18810;53.040;8.850;2022-07-06T13:51:31;24.30;76.90
32334;DHT22;18810;53.040;8.850;2022-07-06T13:58:49;26.10;73.70
32334;DHT22;18810;53.040;8.850;2022-07-06T14:06:08;27.20;64.60
32334;DHT22;18810;53.040;8.850;2022-07-06T14:08:35;26.30;67.40
32334;DHT22;18810;53.040;8.850;2022-07-06T14:20:47;25.50;67.00
32334;DHT22;18810;53.040;8.850;2022-07-06T14:23:13;25.70;65.50
32334;DHT22;18810;53.040;8.850;2022-07-06T14:25:40;26.20;64.00
32334;DHT22;18810;53.040;8.850;2022-07-06T14:30:34;26.90;62.00
32334;DHT22;18810;53.040;8.850;2022-07-06T14:42:46;25.90;61.50
32334;DHT22;18810;53.040;8.850;2022-07-06T14:50:04;26.00;62.40
32334;DHT22;18810;53.040;8.850;2022-07-06T15:07:06;25.50;66.70
32334;DHT22;18810;53.040;8.850;2022-07-06T15:16:52;25.10;66.60
32334;DHT22;18810;53.040;8.850;2022-07-06T15:19:17;25.00;67.70
32334;DHT22;18810;53.040;8.850;2022-07-06T15:21:43;24.60;68.90
32334;DHT22;18810;53.040;8.850;2022-07-06T15:26:35;24.00;69.00
32334;DHT22;18810;53.040;8.850;2022-07-06T15:33:53;23.50;71.50
32334;DHT22;18810;53.040;8.850;2022-07-06T15:46:03;23.50;71.70
32334;DHT22;18810;53.040;8.850;2022-07-06T15:48:30;23.20;73.30
32334;DHT22;18810;53.040;8.850;2022-07-06T15:50:58;23.50;73.60
32334;DHT22;18810;53.040;8.850;2022-07-06T15:53:24;23.10;74.40
32334;DHT22;18810;53.040;8.850;2022-07-06T15:55:50;23.10;74.20
32334;DHT22;18810;53.040;8.850;2022-07-06T15:58:16;23.10;74.60
32334;DHT22;18810;53.040;8.850;2022-07-06T16:00:42;22.70;75.40
32334;DHT22;18810;53.040;8.850;2022-07-06T16:07:59;23.00;74.90
32334;DHT22;18810;53.040;8.850;2022-07-06T16:12:54;23.40;74.80
32334;DHT22;18810;53.040;8.850;2022-07-06T16:15:20;23.60;74.50
32334;DHT22;18810;53.040;8.850;2022-07-06T16:17:46;23.90;74.60
32334;DHT22;18810;53.040;8.850;2022-07-06T16:22:42;24.00;74.00
32334;DHT22;18810;53.040;8.850;2022-07-06T16:30:02;23.00;77.10
32334;DHT22;18810;53.040;8.850;2022-07-06T16:32:28;22.80;78.40
32334;DHT22;18810;53.040;8.850;2022-07-06T16:34:56;22.80;78.00
32334;DHT22;18810;53.040;8.850;2022-07-06T16:37:21;22.90;77.80
32334;DHT22;18810;53.040;8.850;2022-07-06T16:44:39;22.30;79.40
32334;DHT22;18810;53.040;8.850;2022-07-06T16:49:31;22.20;79.90
32334;DHT22;18810;53.040;8.850;2022-07-06T17:13:51;21.90;80.00
32334;DHT22;18810;53.040;8.850;2022-07-06T17:21:09;21.70;81.80
32334;DHT22;18810;53.040;8.850;2022-07-06T17:26:00;21.60;81.60
32334;DHT22;18810;53.040;8.850;2022-07-06T17:30:52;21.40;82.60
32334;DHT22;18810;53.040;8.850;2022-07-06T17:40:36;21.10;84.40
32334;DHT22;18810;53.040;8.850;2022-07-06T17:47:54;20.90;85.70
32334;DHT22;18810;53.040;8.850;2022-07-06T17:52:46;20.80;86.60
32334;DHT22;18810;53.040;8.850;2022-07-06T17:55:12;20.60;87.90
32334;DHT22;18810;53.040;8.850;2022-07-06T17:57:38;20.50;88.90
32334;DHT22;18810;53.040;8.850;2022-07-06T18:00:05;20.50;88.30
32334;DHT22;18810;53.040;8.850;2022-07-06T18:02:34;20.20;90.20
32334;DHT22;18810;53.040;8.850;2022-07-06T18:04:59;20.20;90.40
32334;DHT22;18810;53.040;8.850;2022-07-06T18:09:52;20.30;90.70
32334;DHT22;18810;53.040;8.850;2022-07-06T18:12:20;20.00;91.30
32334;DHT22;18810;53.040;8.850;2022-07-06T18:14:46;20.00;91.40
32334;DHT22;18810;53.040;8.850;2022-07-06T18:17:11;20.10;91.60
32334;DHT22;18810;53.040;8.850;2022-07-06T18:22:03;20.10;91.80
32334;DHT22;18810;53.040;8.850;2022-07-06T18:24:29;19.80;91.50
32334;DHT22;18810;53.040;8.850;2022-07-06T18:31:47;19.60;91.30
32334;DHT22;18810;53.040;8.850;2022-07-06T18:41:31;19.20;92.60
32334;DHT22;18810;53.040;8.850;2022-07-06T18:58:33;19.50;92.10
32334;DHT22;18810;53.040;8.850;2022-07-06T19:00:59;19.50;92.90
32334;DHT22;18810;53.040;8.850;2022-07-06T19:10:43;19.00;94.00
32334;DHT22;18810;53.040;8.850;2022-07-06T19:30:14;18.20;99.80
32334;DHT22;18810;53.040;8.850;2022-07-06T19:35:06;18.20;99.90
32334;DHT22;18810;53.040;8.850;2022-07-06T19:49:43;17.00;99.90
32334;DHT22;18810;53.040;8.850;2022-07-06T19:57:01;16.40;99.90
32334;DHT22;18810;53.040;8.850;2022-07-06T20:55:32;15.10;99.90
32334;DHT22;18810;53.040;8.850;2022-07-06T21:10:09;14.90;99.90
32334;DHT22;18810;53.040;8.850;2022-07-06T21:27:11;15.10;99.90
32334;DHT22;18810;53.040;8.850;2022-07-06T21:36:56;15.20;99.90
32334;DHT22;18810;53.040;8.850;2022-07-06T21:44:14;15.10;99.90
32334;DHT22;18810;53.040;8.850;2022-07-06T21:46:40;15.20;99.90
32334;DHT22;18810;53.040;8.850;2022-07-06T21:56:24;15.10;99.90
32334;DHT22;18810;53.040;8.850;2022-07-06T22:01:16;15.00;99.90